sensor_id;sensor_type;location;lat;lon;timestamp;temperature;humidity
15231;DHT22;32569;51.762;8.564;2024-03-08T00:00:04;2.50;99.90
15231;DHT22;32569;51.762;8.564;2024-03-08T00:02:35;2.50;99.90
15231;DHT22;32569;51.762;8.564;2024-03-08T00:05:02;2.50;99.90
15231;DHT22;32569;51.762;8.564;2024-03-08T00:07:35;2.50;99.90
15231;DHT22;32569;51.762;8.564;2024-03-08T00:10:02;2.50;99.90
15231;DHT22;32569;51.762;8.564;2024-03-08T00:12:30;2.40;99.90
15231;DHT22;32569;51.762;8.564;2024-03-08T00:14:56;2.40;99.90
15231;DHT22;32569;51.762;8.564;2024-03-08T00:17:24;2.40;99.90
15231;DHT22;32569;51.762;8.564;2024-03-08T00:19:51;2.30;99.90
15231;DHT22;32569;51.762;8.564;2024-03-08T00:22:17;2.40;99.90
15231;DHT22;32569;51.762;8.564;2024-03-08T00:24:44;2.40;99.90
15231;DHT22;32569;51.762;8.564;2024-03-08T00:27:11;2.40;99.90
15231;DHT22;32569;51.762;8.564;2024-03-08T00:29:39;2.40;99.90
15231;DHT22;32569;51.762;8.564;2024-03-08T00:32:09;2.40;99.90
15231;DHT22;32569;51.762;8.564;2024-03-08T00:34:36;2.40;99.90
15231;DHT22;32569;51.762;8.564;2024-03-08T00:37:03;2.50;99.90
15231;DHT22;32569;51.762;8.564;2024-03-08T00:39:30;2.40;99.90
15231;DHT22;32569;51.762;8.564;2024-03-08T00:41:56;2.40;99.90
15231;DHT22;32569;51.762;8.564;2024-03-08T00:44:23;2.40;99.90
15231;DHT22;32569;51.762;8.564;2024-03-08T00:46:51;2.30;99.90
15231;DHT22;32569;51.762;8.564;2024-03-08T00:49:18;2.30;99.90
15231;DHT22;32569;51.762;8.564;2024-03-08T00:51:45;2.30;99.90
15231;DHT22;32569;51.762;8.564;2024-03-08T00:54:11;2.30;99.90
15231;DHT22;32569;51.762;8.564;2024-03-08T00:56:38;2.30;99.90
15231;DHT22;32569;51.762;8.564;2024-03-08T00:59:06;2.30;99.90
15231;DHT22;32569;51.762;8.564;2024-03-08T01:01:33;2.40;99.90
15231;DHT22;32569;51.762;8.564;2024-03-08T01:04:01;2.30;99.90
15231;DHT22;32569;51.762;8.564;2024-03-08T01:06:28;2.40;99.90
15231;DHT22;32569;51.762;8.564;2024-03-08T01:08:54;2.40;99.90
15231;DHT22;32569;51.762;8.564;2024-03-08T01:11:21;2.40;99.90
15231;DHT22;32569;51.762;8.564;2024-03-08T01:13:48;2.30;99.90
15231;DHT22;32569;51.762;8.564;2024-03-08T01:16:15;2.30;99.90
15231;DHT22;32569;51.762;8.564;2024-03-08T01:18:42;2.30;99.90
15231;DHT22;32569;51.762;8.564;2024-03-08T01:21:10;2.20;99.90
15231;DHT22;32569;51.762;8.564;2024-03-08T01:23:36;2.20;99.90
15231;DHT22;32569;51.762;8.564;2024-03-08T01:26:04;2.20;99.90
15231;DHT22;32569;51.762;8.564;2024-03-08T01:28:30;2.10;99.90
15231;DHT22;32569;51.762;8.564;2024-03-08T01:30:59;2.10;99.90
15231;DHT22;32569;51.762;8.564;2024-03-08T01:33:26;2.10;99.90
15231;DHT22;32569;51.762;8.564;2024-03-08T01:35:53;2.00;99.90
15231;DHT22;32569;51.762;8.564;2024-03-08T01:38:21;2.00;99.90
15231;DHT22;32569;51.762;8.564;2024-03-08T01:40:48;2.00;99.90
15231;DHT22;32569;51.762;8.564;2024-03-08T01:43:18;2.00;99.90
15231;DHT22;32569;51.762;8.564;2024-03-08T01:45:44;2.00;99.90
15231;DHT22;32569;51.762;8.564;2024-03-08T01:48:11;2.00;99.90
15231;DHT22;32569;51.762;8.564;2024-03-08T01:50:38;2.00;99.90
15231;DHT22;32569;51.762;8.564;2024-03-08T01:53:05;2.00;99.90
15231;DHT22;32569;51.762;8.564;2024-03-08T01:55:34;2.00;99.90
15231;DHT22;32569;51.762;8.564;2024-03-08T01:58:01;2.00;99.90
15231;DHT22;32569;51.762;8.564;2024-03-08T02:00:29;2.00;99.90
15231;DHT22;32569;51.762;8.564;2024-03-08T02:02:57;1.90;99.90
15231;DHT22;32569;51.762;8.564;2024-03-08T02:05:24;1.90;99.90
15231;DHT22;32569;51.762;8.564;2024-03-08T02:07:50;1.90;99.90
15231;DHT22;32569;51.762;8.564;2024-03-08T02:10:17;1.90;99.90
15231;DHT22;32569;51.762;8.564;2024-03-08T02:12:46;1.90;99.90
15231;DHT22;32569;51.762;8.564;2024-03-08T02:15:13;1.90;99.90
15231;DHT22;32569;51.762;8.564;2024-03-08T02:17:40;1.90;99.90
15231;DHT22;32569;51.762;8.564;2024-03-08T02:20:07;1.90;99.90
15231;DHT22;32569;51.762;8.564;2024-03-08T02:22:36;1.80;99.90
15231;DHT22;32569;51.762;8.564;2024-03-08T02:25:03;1.90;99.90
15231;DHT22;32569;51.762;8.564;2024-03-08T02:27:31;1.80;99.90
15231;DHT22;32569;51.762;8.564;2024-03-08T02:29:58;1.90;99.90
15231;DHT22;32569;51.762;8.564;2024-03-08T02:32:25;1.90;99.90
15231;DHT22;32569;51.762;8.564;2024-03-08T02:34:56;1.90;99.90
15231;DHT22;32569;51.762;8.564;2024-03-08T02:37:25;1.90;99.90
15231;DHT22;32569;51.762;8.564;2024-03-08T02:39:54;1.90;99.90
15231;DHT22;32569;51.762;8.564;2024-03-08T02:42:20;1.80;99.90
15231;DHT22;32569;51.762;8.564;2024-03-08T02:44:48;1.90;99.90
15231;DHT22;32569;51.762;8.564;2024-03-08T02:47:14;1.80;99.90
15231;DHT22;32569;51.762;8.564;2024-03-08T02:49:41;1.80;99.90
15231;DHT22;32569;51.762;8.564;2024-03-08T02:52:08;1.80;99.90
15231;DHT22;32569;51.762;8.564;2024-03-08T02:54:34;1.70;99.90
15231;DHT22;32569;51.762;8.564;2024-03-08T02:57:03;1.60;99.90
15231;DHT22;32569;51.762;8.564;2024-03-08T02:59:32;1.60;99.90
15231;DHT22;32569;51.762;8.564;2024-03-08T03:01:59;1.60;99.90
15231;DHT22;32569;51.762;8.564;2024-03-08T03:04:25;1.60;99.90
15231;DHT22;32569;51.762;8.564;2024-03-08T03:06:52;1.70;99.90
15231;DHT22;32569;51.762;8.564;2024-03-08T03:09:20;1.70;99.90
15231;DHT22;32569;51.762;8.564;2024-03-08T03:11:49;1.70;99.90
15231;DHT22;32569;51.762;8.564;2024-03-08T03:14:17;1.60;99.90
15231;DHT22;32569;51.762;8.564;2024-03-08T03:16:44;1.50;99.90
15231;DHT22;32569;51.762;8.564;2024-03-08T03:19:11;1.60;99.90
15231;DHT22;32569;51.762;8.564;2024-03-08T03:21:39;1.60;99.90
15231;DHT22;32569;51.762;8.564;2024-03-08T03:24:08;1.70;99.90
15231;DHT22;32569;51.762;8.564;2024-03-08T03:26:36;1.70;99.90
15231;DHT22;32569;51.762;8.564;2024-03-08T03:29:04;1.60;99.90
15231;DHT22;32569;51.762;8.564;2024-03-08T03:31:32;1.50;99.90
15231;DHT22;32569;51.762;8.564;2024-03-08T03:33:59;1.40;99.90
15231;DHT22;32569;51.762;8.564;2024-03-08T03:36:28;1.40;99.90
15231;DHT22;32569;51.762;8.564;2024-03-08T03:38:55;1.30;99.90
15231;DHT22;32569;51.762;8.564;2024-03-08T03:41:30;1.40;99.90
15231;DHT22;32569;51.762;8.564;2024-03-08T03:43:57;1.40;99.90
15231;DHT22;32569;51.762;8.564;2024-03-08T03:46:24;1.40;99.90
15231;DHT22;32569;51.762;8.564;2024-03-08T03:48:54;1.50;99.90
15231;DHT22;32569;51.762;8.564;2024-03-08T03:51:20;1.50;99.90
15231;DHT22;32569;51.762;8.564;2024-03-08T03:53:47;1.50;99.90
15231;DHT22;32569;51.762;8.564;2024-03-08T03:56:14;1.50;99.90
15231;DHT22;32569;51.762;8.564;2024-03-08T03:58:41;1.60;99.90
15231;DHT22;32569;51.762;8.564;2024-03-08T04:01:08;1.50;99.90
15231;DHT22;32569;51.762;8.564;2024-03-08T04:03:35;1.50;99.90
15231;DHT22;32569;51.762;8.564;2024-03-08T04:06:03;1.50;99.90
15231;DHT22;32569;51.762;8.564;2024-03-08T04:08:30;1.40;99.90
15231;DHT22;32569;51.762;8.564;2024-03-08T04:10:59;1.40;99.90
15231;DHT22;32569;51.762;8.564;2024-03-08T04:13:26;1.40;99.90
15231;DHT22;32569;51.762;8.564;2024-03-08T04:15:53;1.50;99.90
15231;DHT22;32569;51.762;8.564;2024-03-08T04:18:19;1.40;99.90
15231;DHT22;32569;51.762;8.564;2024-03-08T04:20:46;1.40;99.90
15231;DHT22;32569;51.762;8.564;2024-03-08T04:23:14;1.40;99.90
15231;DHT22;32569;51.762;8.564;2024-03-08T04:25:43;1.40;99.90
15231;DHT22;32569;51.762;8.564;2024-03-08T04:28:09;1.40;99.90
15231;DHT22;32569;51.762;8.564;2024-03-08T04:30:37;1.50;99.90
15231;DHT22;32569;51.762;8.564;2024-03-08T04:33:05;1.50;99.90
15231;DHT22;32569;51.762;8.564;2024-03-08T04:35:31;1.50;99.90
15231;DHT22;32569;51.762;8.564;2024-03-08T04:37:58;1.50;99.90
15231;DHT22;32569;51.762;8.564;2024-03-08T04:40:26;1.40;99.90
15231;DHT22;32569;51.762;8.564;2024-03-08T04:42:53;1.40;99.90
15231;DHT22;32569;51.762;8.564;2024-03-08T04:45:19;1.40;99.90
15231;DHT22;32569;51.762;8.564;2024-03-08T04:47:47;1.40;99.90
15231;DHT22;32569;51.762;8.564;2024-03-08T04:50:13;1.50;99.90
15231;DHT22;32569;51.762;8.564;2024-03-08T04:52:40;1.40;99.90
15231;DHT22;32569;51.762;8.564;2024-03-08T04:55:07;1.40;99.90
15231;DHT22;32569;51.762;8.564;2024-03-08T04:57:35;1.40;99.90
15231;DHT22;32569;51.762;8.564;2024-03-08T05:00:02;1.30;99.90
15231;DHT22;32569;51.762;8.564;2024-03-08T05:02:36;1.30;99.90
15231;DHT22;32569;51.762;8.564;2024-03-08T05:05:04;1.40;99.90
15231;DHT22;32569;51.762;8.564;2024-03-08T05:07:32;1.40;99.90
15231;DHT22;32569;51.762;8.564;2024-03-08T05:09:59;1.30;99.90
15231;DHT22;32569;51.762;8.564;2024-03-08T05:12:25;1.30;99.90
15231;DHT22;32569;51.762;8.564;2024-03-08T05:14:53;1.40;99.90
15231;DHT22;32569;51.762;8.564;2024-03-08T05:17:20;1.40;99.90
15231;DHT22;32569;51.762;8.564;2024-03-08T05:19:49;1.30;99.90
15231;DHT22;32569;51.762;8.564;2024-03-08T05:22:16;1.30;99.90
15231;DHT22;32569;51.762;8.564;2024-03-08T05:24:43;1.30;99.90
15231;DHT22;32569;51.762;8.564;2024-03-08T05:27:09;1.30;99.90
15231;DHT22;32569;51.762;8.564;2024-03-08T05:29:36;1.30;99.90
15231;DHT22;32569;51.762;8.564;2024-03-08T05:32:03;1.30;99.90
15231;DHT22;32569;51.762;8.564;2024-03-08T05:34:30;1.20;99.90
15231;DHT22;32569;51.762;8.564;2024-03-08T05:36:57;1.20;99.90
15231;DHT22;32569;51.762;8.564;2024-03-08T05:39:24;1.10;99.90
15231;DHT22;32569;51.762;8.564;2024-03-08T05:41:51;1.10;99.90
15231;DHT22;32569;51.762;8.564;2024-03-08T05:44:18;1.20;99.90
15231;DHT22;32569;51.762;8.564;2024-03-08T05:46:44;1.10;99.90
15231;DHT22;32569;51.762;8.564;2024-03-08T05:49:13;1.10;99.90
15231;DHT22;32569;51.762;8.564;2024-03-08T05:51:40;1.10;99.90
15231;DHT22;32569;51.762;8.564;2024-03-08T05:54:08;1.10;99.90
15231;DHT22;32569;51.762;8.564;2024-03-08T05:56:35;1.10;99.90
15231;DHT22;32569;51.762;8.564;2024-03-08T05:59:02;1.10;99.90
15231;DHT22;32569;51.762;8.564;2024-03-08T06:01:29;1.00;99.90
15231;DHT22;32569;51.762;8.564;2024-03-08T06:03:57;1.00;99.90
15231;DHT22;32569;51.762;8.564;2024-03-08T06:06:26;1.00;99.90
15231;DHT22;32569;51.762;8.564;2024-03-08T06:08:53;1.00;99.90
15231;DHT22;32569;51.762;8.564;2024-03-08T06:11:21;1.00;99.90
15231;DHT22;32569;51.762;8.564;2024-03-08T06:13:49;1.00;99.90
15231;DHT22;32569;51.762;8.564;2024-03-08T06:16:15;1.00;99.90
15231;DHT22;32569;51.762;8.564;2024-03-08T06:18:42;1.10;99.90
15231;DHT22;32569;51.762;8.564;2024-03-08T06:21:09;1.20;99.90
15231;DHT22;32569;51.762;8.564;2024-03-08T06:23:38;1.20;99.90
15231;DHT22;32569;51.762;8.564;2024-03-08T06:26:05;1.20;99.90
15231;DHT22;32569;51.762;8.564;2024-03-08T06:28:32;1.10;99.90
15231;DHT22;32569;51.762;8.564;2024-03-08T06:31:00;1.10;99.90
15231;DHT22;32569;51.762;8.564;2024-03-08T06:33:27;1.20;99.90
15231;DHT22;32569;51.762;8.564;2024-03-08T06:35:54;1.10;99.90
15231;DHT22;32569;51.762;8.564;2024-03-08T06:38:22;1.10;99.90
15231;DHT22;32569;51.762;8.564;2024-03-08T06:40:50;1.10;99.90
15231;DHT22;32569;51.762;8.564;2024-03-08T06:43:17;1.10;99.90
15231;DHT22;32569;51.762;8.564;2024-03-08T06:45:44;1.10;99.90
15231;DHT22;32569;51.762;8.564;2024-03-08T06:48:14;1.10;99.90
15231;DHT22;32569;51.762;8.564;2024-03-08T06:50:40;1.20;99.90
15231;DHT22;32569;51.762;8.564;2024-03-08T06:53:07;1.30;99.90
15231;DHT22;32569;51.762;8.564;2024-03-08T06:55:34;1.40;99.90
15231;DHT22;32569;51.762;8.564;2024-03-08T06:58:02;1.40;99.90
15231;DHT22;32569;51.762;8.564;2024-03-08T07:00:28;1.40;99.90
15231;DHT22;32569;51.762;8.564;2024-03-08T07:02:55;1.50;99.90
15231;DHT22;32569;51.762;8.564;2024-03-08T07:05:26;1.50;99.90
15231;DHT22;32569;51.762;8.564;2024-03-08T07:07:53;1.60;99.90
15231;DHT22;32569;51.762;8.564;2024-03-08T07:10:20;1.60;99.90
15231;DHT22;32569;51.762;8.564;2024-03-08T07:12:49;1.60;99.90
15231;DHT22;32569;51.762;8.564;2024-03-08T07:15:17;1.80;99.90
15231;DHT22;32569;51.762;8.564;2024-03-08T07:17:45;1.90;99.90
15231;DHT22;32569;51.762;8.564;2024-03-08T07:20:12;1.90;99.90
15231;DHT22;32569;51.762;8.564;2024-03-08T07:22:41;1.90;99.90
15231;DHT22;32569;51.762;8.564;2024-03-08T07:25:08;2.00;99.90
15231;DHT22;32569;51.762;8.564;2024-03-08T07:27:47;2.00;99.90
15231;DHT22;32569;51.762;8.564;2024-03-08T07:30:14;2.10;99.90
15231;DHT22;32569;51.762;8.564;2024-03-08T07:33:03;2.10;99.90
15231;DHT22;32569;51.762;8.564;2024-03-08T07:35:30;2.20;99.90
15231;DHT22;32569;51.762;8.564;2024-03-08T07:37:57;2.20;99.90
15231;DHT22;32569;51.762;8.564;2024-03-08T07:40:25;2.20;99.90
15231;DHT22;32569;51.762;8.564;2024-03-08T07:42:52;2.30;99.90
15231;DHT22;32569;51.762;8.564;2024-03-08T07:45:19;2.30;99.90
15231;DHT22;32569;51.762;8.564;2024-03-08T07:47:47;2.40;99.90
15231;DHT22;32569;51.762;8.564;2024-03-08T07:50:15;2.40;99.90
15231;DHT22;32569;51.762;8.564;2024-03-08T07:52:42;2.50;99.90
15231;DHT22;32569;51.762;8.564;2024-03-08T07:55:09;2.60;99.90
15231;DHT22;32569;51.762;8.564;2024-03-08T07:57:36;2.60;99.90
15231;DHT22;32569;51.762;8.564;2024-03-08T08:00:05;2.70;99.90
15231;DHT22;32569;51.762;8.564;2024-03-08T08:02:33;2.70;99.90
15231;DHT22;32569;51.762;8.564;2024-03-08T08:05:00;2.80;99.90
15231;DHT22;32569;51.762;8.564;2024-03-08T08:07:29;2.80;99.90
15231;DHT22;32569;51.762;8.564;2024-03-08T08:09:55;2.80;99.90
15231;DHT22;32569;51.762;8.564;2024-03-08T08:12:22;2.90;99.90
15231;DHT22;32569;51.762;8.564;2024-03-08T08:14:49;3.00;99.90
15231;DHT22;32569;51.762;8.564;2024-03-08T08:17:15;3.00;99.90
15231;DHT22;32569;51.762;8.564;2024-03-08T08:19:42;3.10;99.90
15231;DHT22;32569;51.762;8.564;2024-03-08T08:22:09;3.10;99.90
15231;DHT22;32569;51.762;8.564;2024-03-08T08:24:38;3.20;99.90
15231;DHT22;32569;51.762;8.564;2024-03-08T08:27:05;3.30;99.90
15231;DHT22;32569;51.762;8.564;2024-03-08T08:29:32;3.30;99.90
15231;DHT22;32569;51.762;8.564;2024-03-08T08:31:59;3.30;99.90
15231;DHT22;32569;51.762;8.564;2024-03-08T08:34:25;3.40;99.90
15231;DHT22;32569;51.762;8.564;2024-03-08T08:36:52;3.50;99.90
15231;DHT22;32569;51.762;8.564;2024-03-08T08:39:20;3.50;99.90
15231;DHT22;32569;51.762;8.564;2024-03-08T08:41:49;3.60;99.90
15231;DHT22;32569;51.762;8.564;2024-03-08T08:44:16;3.60;99.90
15231;DHT22;32569;51.762;8.564;2024-03-08T08:46:43;3.60;99.90
15231;DHT22;32569;51.762;8.564;2024-03-08T08:49:09;3.70;99.90
15231;DHT22;32569;51.762;8.564;2024-03-08T08:51:39;3.70;99.90
15231;DHT22;32569;51.762;8.564;2024-03-08T08:54:06;3.80;99.90
15231;DHT22;32569;51.762;8.564;2024-03-08T08:56:33;3.80;99.90
15231;DHT22;32569;51.762;8.564;2024-03-08T08:59:02;3.80;99.90
15231;DHT22;32569;51.762;8.564;2024-03-08T09:01:29;4.00;99.90
15231;DHT22;32569;51.762;8.564;2024-03-08T09:03:56;4.00;99.90
15231;DHT22;32569;51.762;8.564;2024-03-08T09:06:22;4.00;99.90
15231;DHT22;32569;51.762;8.564;2024-03-08T09:08:50;4.10;99.90
15231;DHT22;32569;51.762;8.564;2024-03-08T09:11:17;4.20;99.90
15231;DHT22;32569;51.762;8.564;2024-03-08T09:13:44;4.30;99.90
15231;DHT22;32569;51.762;8.564;2024-03-08T09:16:13;4.30;99.90
15231;DHT22;32569;51.762;8.564;2024-03-08T09:18:40;4.30;99.90
15231;DHT22;32569;51.762;8.564;2024-03-08T09:21:07;4.30;99.90
15231;DHT22;32569;51.762;8.564;2024-03-08T09:23:35;4.40;99.90
15231;DHT22;32569;51.762;8.564;2024-03-08T09:26:02;4.30;99.90
15231;DHT22;32569;51.762;8.564;2024-03-08T09:28:29;4.40;99.90
15231;DHT22;32569;51.762;8.564;2024-03-08T09:30:56;4.50;99.90
15231;DHT22;32569;51.762;8.564;2024-03-08T09:33:25;4.60;99.90
15231;DHT22;32569;51.762;8.564;2024-03-08T09:35:54;4.60;99.90
15231;DHT22;32569;51.762;8.564;2024-03-08T09:38:22;4.60;99.90
15231;DHT22;32569;51.762;8.564;2024-03-08T09:40:50;4.70;99.90
15231;DHT22;32569;51.762;8.564;2024-03-08T09:43:17;4.90;99.90
15231;DHT22;32569;51.762;8.564;2024-03-08T09:45:45;4.90;99.90
15231;DHT22;32569;51.762;8.564;2024-03-08T09:48:16;5.00;99.90
15231;DHT22;32569;51.762;8.564;2024-03-08T09:50:46;5.00;99.50
15231;DHT22;32569;51.762;8.564;2024-03-08T09:53:13;5.00;99.40
15231;DHT22;32569;51.762;8.564;2024-03-08T09:55:40;5.00;99.50
15231;DHT22;32569;51.762;8.564;2024-03-08T09:58:11;5.10;99.90
15231;DHT22;32569;51.762;8.564;2024-03-08T10:01:04;5.20;99.90
15231;DHT22;32569;51.762;8.564;2024-03-08T10:03:31;5.20;99.40
15231;DHT22;32569;51.762;8.564;2024-03-08T10:06:00;5.30;99.70
15231;DHT22;32569;51.762;8.564;2024-03-08T10:08:26;5.30;99.70
15231;DHT22;32569;51.762;8.564;2024-03-08T10:10:54;5.30;99.50
15231;DHT22;32569;51.762;8.564;2024-03-08T10:13:25;5.40;99.50
15231;DHT22;32569;51.762;8.564;2024-03-08T10:15:52;5.40;99.60
15231;DHT22;32569;51.762;8.564;2024-03-08T10:18:19;5.60;99.50
15231;DHT22;32569;51.762;8.564;2024-03-08T10:20:47;5.70;99.20
15231;DHT22;32569;51.762;8.564;2024-03-08T10:23:31;5.70;99.00
15231;DHT22;32569;51.762;8.564;2024-03-08T10:26:09;5.70;99.00
15231;DHT22;32569;51.762;8.564;2024-03-08T10:28:36;5.80;98.80
15231;DHT22;32569;51.762;8.564;2024-03-08T10:31:03;5.90;99.10
15231;DHT22;32569;51.762;8.564;2024-03-08T10:33:31;5.80;99.10
15231;DHT22;32569;51.762;8.564;2024-03-08T10:35:58;5.90;98.90
15231;DHT22;32569;51.762;8.564;2024-03-08T10:38:26;6.00;99.00
15231;DHT22;32569;51.762;8.564;2024-03-08T10:40:55;6.10;98.80
15231;DHT22;32569;51.762;8.564;2024-03-08T10:43:24;6.10;98.50
15231;DHT22;32569;51.762;8.564;2024-03-08T10:46:03;6.20;98.30
15231;DHT22;32569;51.762;8.564;2024-03-08T10:48:40;6.20;98.10
15231;DHT22;32569;51.762;8.564;2024-03-08T10:51:08;6.30;98.20
15231;DHT22;32569;51.762;8.564;2024-03-08T10:53:36;6.30;98.00
15231;DHT22;32569;51.762;8.564;2024-03-08T10:56:08;6.30;98.00
15231;DHT22;32569;51.762;8.564;2024-03-08T10:58:36;6.30;97.90
15231;DHT22;32569;51.762;8.564;2024-03-08T11:01:04;6.40;97.90
15231;DHT22;32569;51.762;8.564;2024-03-08T11:03:44;6.40;97.80
15231;DHT22;32569;51.762;8.564;2024-03-08T11:06:15;6.50;97.90
15231;DHT22;32569;51.762;8.564;2024-03-08T11:08:43;6.60;97.80
15231;DHT22;32569;51.762;8.564;2024-03-08T11:11:25;6.60;97.50
15231;DHT22;32569;51.762;8.564;2024-03-08T11:13:55;6.60;97.40
15231;DHT22;32569;51.762;8.564;2024-03-08T11:16:43;6.60;97.50
15231;DHT22;32569;51.762;8.564;2024-03-08T11:19:26;6.60;97.30
15231;DHT22;32569;51.762;8.564;2024-03-08T11:22:03;6.70;97.30
15231;DHT22;32569;51.762;8.564;2024-03-08T11:24:37;6.70;97.30
15231;DHT22;32569;51.762;8.564;2024-03-08T11:27:06;6.70;97.40
15231;DHT22;32569;51.762;8.564;2024-03-08T11:29:36;6.80;97.20
15231;DHT22;32569;51.762;8.564;2024-03-08T11:32:07;6.80;96.90
15231;DHT22;32569;51.762;8.564;2024-03-08T11:34:34;6.90;97.20
15231;DHT22;32569;51.762;8.564;2024-03-08T11:37:00;7.00;97.00
15231;DHT22;32569;51.762;8.564;2024-03-08T11:39:27;7.00;97.20
15231;DHT22;32569;51.762;8.564;2024-03-08T11:41:55;7.10;96.90
15231;DHT22;32569;51.762;8.564;2024-03-08T11:44:26;7.00;96.40
15231;DHT22;32569;51.762;8.564;2024-03-08T11:46:53;7.00;96.40
15231;DHT22;32569;51.762;8.564;2024-03-08T11:49:20;7.00;97.00
15231;DHT22;32569;51.762;8.564;2024-03-08T11:51:46;7.20;96.40
15231;DHT22;32569;51.762;8.564;2024-03-08T11:54:17;7.20;96.10
15231;DHT22;32569;51.762;8.564;2024-03-08T11:56:45;7.20;96.50
15231;DHT22;32569;51.762;8.564;2024-03-08T11:59:13;7.30;96.40
15231;DHT22;32569;51.762;8.564;2024-03-08T12:01:41;7.30;96.60
15231;DHT22;32569;51.762;8.564;2024-03-08T12:04:12;7.40;96.40
15231;DHT22;32569;51.762;8.564;2024-03-08T12:06:39;7.40;96.70
15231;DHT22;32569;51.762;8.564;2024-03-08T12:09:08;7.30;96.40
15231;DHT22;32569;51.762;8.564;2024-03-08T12:11:36;7.40;96.80
15231;DHT22;32569;51.762;8.564;2024-03-08T12:14:02;7.50;96.30
15231;DHT22;32569;51.762;8.564;2024-03-08T12:16:29;7.60;96.60
15231;DHT22;32569;51.762;8.564;2024-03-08T12:18:57;7.70;96.20
15231;DHT22;32569;51.762;8.564;2024-03-08T12:21:26;7.60;96.10
15231;DHT22;32569;51.762;8.564;2024-03-08T12:24:03;7.60;96.50
15231;DHT22;32569;51.762;8.564;2024-03-08T12:26:30;7.60;96.30
15231;DHT22;32569;51.762;8.564;2024-03-08T12:29:15;7.60;95.90
15231;DHT22;32569;51.762;8.564;2024-03-08T12:31:43;7.60;96.30
15231;DHT22;32569;51.762;8.564;2024-03-08T12:34:12;7.70;96.30
15231;DHT22;32569;51.762;8.564;2024-03-08T12:36:45;7.70;96.30
15231;DHT22;32569;51.762;8.564;2024-03-08T12:39:13;7.70;96.90
15231;DHT22;32569;51.762;8.564;2024-03-08T12:41:41;7.80;96.20
15231;DHT22;32569;51.762;8.564;2024-03-08T12:44:08;7.90;96.20
15231;DHT22;32569;51.762;8.564;2024-03-08T12:46:37;7.80;95.80
15231;DHT22;32569;51.762;8.564;2024-03-08T12:49:06;7.90;95.90
15231;DHT22;32569;51.762;8.564;2024-03-08T12:51:34;7.80;96.00
15231;DHT22;32569;51.762;8.564;2024-03-08T12:54:02;7.80;96.60
15231;DHT22;32569;51.762;8.564;2024-03-08T12:56:30;7.90;96.40
15231;DHT22;32569;51.762;8.564;2024-03-08T12:58:58;7.90;96.70
15231;DHT22;32569;51.762;8.564;2024-03-08T13:01:25;8.00;96.40
15231;DHT22;32569;51.762;8.564;2024-03-08T13:03:52;8.00;95.90
15231;DHT22;32569;51.762;8.564;2024-03-08T13:06:22;8.00;96.30
15231;DHT22;32569;51.762;8.564;2024-03-08T13:08:54;8.00;96.80
15231;DHT22;32569;51.762;8.564;2024-03-08T13:11:21;8.00;96.20
15231;DHT22;32569;51.762;8.564;2024-03-08T13:13:49;8.10;96.20
15231;DHT22;32569;51.762;8.564;2024-03-08T13:16:15;8.10;96.20
15231;DHT22;32569;51.762;8.564;2024-03-08T13:18:44;8.00;95.80
15231;DHT22;32569;51.762;8.564;2024-03-08T13:21:12;8.10;96.00
15231;DHT22;32569;51.762;8.564;2024-03-08T13:23:40;8.10;96.20
15231;DHT22;32569;51.762;8.564;2024-03-08T13:26:15;8.10;96.00
15231;DHT22;32569;51.762;8.564;2024-03-08T13:28:43;8.10;96.50
15231;DHT22;32569;51.762;8.564;2024-03-08T13:31:09;8.20;96.10
15231;DHT22;32569;51.762;8.564;2024-03-08T13:33:38;8.30;96.20
15231;DHT22;32569;51.762;8.564;2024-03-08T13:36:05;8.30;95.80
15231;DHT22;32569;51.762;8.564;2024-03-08T13:38:40;8.30;95.90
15231;DHT22;32569;51.762;8.564;2024-03-08T13:41:08;8.30;96.10
15231;DHT22;32569;51.762;8.564;2024-03-08T13:43:36;8.30;95.80
15231;DHT22;32569;51.762;8.564;2024-03-08T13:46:05;8.30;95.60
15231;DHT22;32569;51.762;8.564;2024-03-08T13:48:32;8.30;95.50
15231;DHT22;32569;51.762;8.564;2024-03-08T13:50:58;8.20;95.50
15231;DHT22;32569;51.762;8.564;2024-03-08T13:53:25;8.30;96.00
15231;DHT22;32569;51.762;8.564;2024-03-08T13:55:52;8.30;96.30
15231;DHT22;32569;51.762;8.564;2024-03-08T13:58:19;8.40;96.10
15231;DHT22;32569;51.762;8.564;2024-03-08T14:00:47;8.40;95.90
15231;DHT22;32569;51.762;8.564;2024-03-08T14:03:14;8.40;96.00
15231;DHT22;32569;51.762;8.564;2024-03-08T14:05:41;8.40;95.80
15231;DHT22;32569;51.762;8.564;2024-03-08T14:08:08;8.40;95.20
15231;DHT22;32569;51.762;8.564;2024-03-08T14:10:35;8.40;95.30
15231;DHT22;32569;51.762;8.564;2024-03-08T14:13:03;8.40;95.20
15231;DHT22;32569;51.762;8.564;2024-03-08T14:15:30;8.40;95.00
15231;DHT22;32569;51.762;8.564;2024-03-08T14:17:58;8.50;95.40
15231;DHT22;32569;51.762;8.564;2024-03-08T14:20:25;8.50;95.00
15231;DHT22;32569;51.762;8.564;2024-03-08T14:22:52;8.40;95.20
15231;DHT22;32569;51.762;8.564;2024-03-08T14:25:20;8.50;95.20
15231;DHT22;32569;51.762;8.564;2024-03-08T14:27:49;8.40;95.10
15231;DHT22;32569;51.762;8.564;2024-03-08T14:30:19;8.40;95.00
15231;DHT22;32569;51.762;8.564;2024-03-08T14:32:58;8.50;95.50
15231;DHT22;32569;51.762;8.564;2024-03-08T14:35:25;8.50;95.00
15231;DHT22;32569;51.762;8.564;2024-03-08T14:37:52;8.50;95.00
15231;DHT22;32569;51.762;8.564;2024-03-08T14:40:19;8.50;94.60
15231;DHT22;32569;51.762;8.564;2024-03-08T14:42:48;8.50;94.50
15231;DHT22;32569;51.762;8.564;2024-03-08T14:45:15;8.40;94.60
15231;DHT22;32569;51.762;8.564;2024-03-08T14:47:41;8.40;94.80
15231;DHT22;32569;51.762;8.564;2024-03-08T14:50:10;8.40;94.70
15231;DHT22;32569;51.762;8.564;2024-03-08T14:52:38;8.40;95.10
15231;DHT22;32569;51.762;8.564;2024-03-08T14:55:09;8.40;95.40
15231;DHT22;32569;51.762;8.564;2024-03-08T14:57:39;8.40;95.50
15231;DHT22;32569;51.762;8.564;2024-03-08T15:00:07;8.50;95.10
15231;DHT22;32569;51.762;8.564;2024-03-08T15:02:41;8.50;95.20
15231;DHT22;32569;51.762;8.564;2024-03-08T15:05:07;8.50;95.10
15231;DHT22;32569;51.762;8.564;2024-03-08T15:07:38;8.50;95.20
15231;DHT22;32569;51.762;8.564;2024-03-08T15:10:06;8.50;95.60
15231;DHT22;32569;51.762;8.564;2024-03-08T15:12:37;8.50;95.30
15231;DHT22;32569;51.762;8.564;2024-03-08T15:15:06;8.50;95.20
15231;DHT22;32569;51.762;8.564;2024-03-08T15:17:33;8.50;95.50
15231;DHT22;32569;51.762;8.564;2024-03-08T15:20:00;8.50;95.70
15231;DHT22;32569;51.762;8.564;2024-03-08T15:22:26;8.60;95.70
15231;DHT22;32569;51.762;8.564;2024-03-08T15:24:55;8.60;95.40
15231;DHT22;32569;51.762;8.564;2024-03-08T15:27:23;8.60;95.40
15231;DHT22;32569;51.762;8.564;2024-03-08T15:29:50;8.60;95.40
15231;DHT22;32569;51.762;8.564;2024-03-08T15:32:21;8.60;95.10
15231;DHT22;32569;51.762;8.564;2024-03-08T15:34:48;8.50;95.20
15231;DHT22;32569;51.762;8.564;2024-03-08T15:37:14;8.60;95.40
15231;DHT22;32569;51.762;8.564;2024-03-08T15:39:42;8.60;95.20
15231;DHT22;32569;51.762;8.564;2024-03-08T15:42:10;8.60;95.40
15231;DHT22;32569;51.762;8.564;2024-03-08T15:44:37;8.60;95.10
15231;DHT22;32569;51.762;8.564;2024-03-08T15:47:04;8.60;95.10
15231;DHT22;32569;51.762;8.564;2024-03-08T15:49:32;8.70;95.50